Time;durP1;ratioP1;P1;durP2;ratioP2;P2;SDS_P1;SDS_P2;PMS_P1;PMS_P2;Temp;Humidity;BMP_temperature;BMP_pressure;BME280_temperature;BME280_humidity;BME280_pressure;Samples;Min_cycle;Max_cycle;Signal;HPM_P1;HPM_P2
2020/12/08 00:04:12;;;;;;;9.98;8.98;;;;;;;5.04;65.13;98916.38;10507532;28;20048;-65
2020/12/08 00:09:13;;;;;;;10.50;9.63;;;;;;;5.26;64.57;98903.59;10507797;28;20036;-64
2020/12/08 00:14:15;;;;;;;11.93;9.63;;;;;;;5.12;65.09;98890.13;10507148;28;20064;-65
2020/12/08 00:19:16;;;;;;;9.65;8.95;;;;;;;5.01;65.27;98878.25;10507393;28;20060;-66
2020/12/08 00:24:17;;;;;;;10.32;8.98;;;;;;;5.01;65.34;98882.63;10489764;28;20139;-65
2020/12/08 00:29:18;;;;;;;10.98;10.05;;;;;;;5.24;65.28;98906.25;10506664;28;20060;-66
2020/12/08 00:34:19;;;;;;;10.25;9.45;;;;;;;5.13;65.11;98889.22;10506233;28;20096;-66
2020/12/08 00:39:21;;;;;;;10.82;9.93;;;;;;;4.95;66.02;98881.00;10506533;28;20041;-65
2020/12/08 00:44:22;;;;;;;11.07;10.20;;;;;;;5.10;65.72;98884.09;10506975;28;20064;-65
2020/12/08 00:49:23;;;;;;;10.10;9.30;;;;;;;5.36;64.93;98872.91;10488770;28;20040;-65
2020/12/08 00:54:25;;;;;;;10.45;9.60;;;;;;;5.07;65.65;98872.00;10487899;28;20099;-66
2020/12/08 00:59:26;;;;;;;11.05;10.15;;;;;;;4.92;66.16;98875.91;10486547;28;20052;-64
2020/12/08 01:04:28;;;;;;;11.48;10.57;;;;;;;5.09;65.91;98877.16;10487779;28;20048;-66
2020/12/08 01:09:30;;;;;;;11.60;10.68;;;;;;;5.20;65.61;98877.72;10487409;28;20052;-66
2020/12/08 01:14:33;;;;;;;11.90;11.00;;;;;;;5.14;65.61;98864.91;10505277;28;20131;-66
2020/12/08 01:19:34;;;;;;;11.80;10.82;;;;;;;5.38;65.61;98863.31;10504609;28;20048;-64
2020/12/08 01:24:37;;;;;;;10.73;9.82;;;;;;;5.46;65.21;98866.56;10487604;28;20045;-65
2020/12/08 01:29:39;;;;;;;11.35;10.45;;;;;;;5.09;65.88;98861.53;10485946;28;20098;-66
2020/12/08 01:34:41;;;;;;;12.40;11.40;;;;;;;5.02;66.03;98861.72;10485843;28;20128;-67
2020/12/08 01:39:44;;;;;;;12.38;11.25;;;;;;;5.03;66.01;98858.22;10485345;28;20110;-65
2020/12/08 01:44:47;;;;;;;11.70;10.80;;;;;;;4.84;66.39;98857.03;10503810;28;20056;-65
2020/12/08 01:49:48;;;;;;;11.23;10.43;;;;;;;4.88;66.53;98857.81;10504387;28;20127;-66
2020/12/08 01:54:51;;;;;;;10.95;10.00;;;;;;;4.72;66.88;98862.56;10468658;28;20049;-66
2020/12/08 01:59:55;;;;;;;11.30;10.40;;;;;;;4.73;67.41;98872.06;10502967;28;20044;-66
2020/12/08 02:05:01;;;;;;;11.50;10.60;;;;;;;4.81;66.97;98863.16;10484356;28;20054;-66
2020/12/08 02:10:03;;;;;;;11.07;10.23;;;;;;;4.71;67.13;98866.06;10484747;28;20040;-67
2020/12/08 02:15:07;;;;;;;11.38;10.55;;;;;;;4.75;67.11;98857.28;10502433;28;20075;-65
2020/12/08 02:20:14;;;;;;;10.48;9.57;;;;;;;4.98;66.47;98860.09;10484775;28;20048;-67
2020/12/08 02:25:16;;;;;;;12.48;11.55;;;;;;;4.80;66.83;98845.84;10467877;28;20041;-66
2020/12/08 02:30:17;;;;;;;11.70;10.80;;;;;;;5.04;66.52;98843.44;10484037;28;20055;-65
2020/12/08 02:35:19;;;;;;;11.80;10.90;;;;;;;4.85;66.83;98847.47;10501665;28;20044;-65
2020/12/08 02:40:20;;;;;;;12.63;11.60;;;;;;;4.98;66.65;98854.88;10483899;28;20052;-65
2020/12/08 02:45:23;;;;;;;12.45;11.45;;;;;;;4.64;68.13;98852.34;10483936;28;20048;-65
2020/12/08 02:50:25;;;;;;;16.55;15.32;;;;;;;4.87;68.09;98848.25;10483871;28;20044;-65
2020/12/08 02:55:27;;;;;;;16.58;15.38;;;;;;;4.73;68.45;98835.63;10484089;28;20090;-66
2020/12/08 03:00:29;;;;;;;16.75;15.52;;;;;;;4.37;69.81;98846.13;10482772;28;20106;-65
2020/12/08 03:05:32;;;;;;;18.90;17.40;;;;;;;4.08;70.01;98851.22;10483718;28;20048;-65
2020/12/08 03:10:35;;;;;;;19.23;17.73;;;;;;;4.09;70.51;98850.31;10481925;28;20071;-66
2020/12/08 03:15:37;;;;;;;20.90;19.00;;;;;;;3.91;70.56;98849.88;10483559;28;20068;-64
2020/12/08 03:20:39;;;;;;;18.38;16.98;;;;;;;3.75;70.60;98861.50;10483417;28;20044;-66
2020/12/08 03:25:41;;;;;;;17.27;15.93;;;;;;;3.82;69.88;98854.44;10489062;28;20056;-66
2020/12/08 03:30:46;;;;;;;18.85;17.35;;;;;;;3.90;69.79;98862.91;10507359;28;20064;-66
2020/12/08 03:35:48;;;;;;;19.85;18.45;;;;;;;3.75;70.24;98869.28;10491286;28;20044;-65
2020/12/08 03:40:50;;;;;;;21.27;19.50;;;;;;;3.54;71.06;98879.31;10472696;28;20128;-65
2020/12/08 03:45:59;;;;;;;22.02;20.08;;;;;;;3.59;71.34;98886.16;10474428;28;20041;-65
2020/12/08 03:51:01;;;;;;;21.10;19.38;;;;;;;3.47;71.64;98888.09;10488030;28;20040;-65
2020/12/08 03:56:03;;;;;;;21.67;19.63;;;;;;;3.39;72.33;98889.16;10488184;28;20513;-65
2020/12/08 04:01:11;;;;;;;22.02;20.25;;;;;;;3.47;72.16;98893.31;10472243;28;20049;-65
2020/12/08 04:06:14;;;;;;;23.55;21.63;;;;;;;3.70;72.06;98899.75;10487886;28;20413;-65
2020/12/08 04:11:16;;;;;;;22.15;20.55;;;;;;;3.67;71.77;98902.41;10488134;28;20501;-65
2020/12/08 04:16:20;;;;;;;26.80;24.50;;;;;;;4.00;72.55;98906.84;10488126;28;20391;-64
2020/12/08 04:21:27;;;;;;;24.92;23.00;;;;;;;4.18;71.54;98913.34;10489793;28;20036;-66
2020/12/08 04:26:45;;;;;;;24.52;22.52;;;;;;;4.38;71.58;98912.00;10489454;28;20131;-66
2020/12/08 04:31:54;;;;;;;26.05;24.00;;;;;;;4.50;71.27;98915.16;10487228;28;20037;-66
2020/12/08 04:37:00;;;;;;;24.38;22.38;;;;;;;4.47;71.28;98922.19;10486291;28;20143;-64
2020/12/08 04:42:01;;;;;;;26.20;24.00;;;;;;;4.41;71.87;98922.34;10505121;28;20036;-65
2020/12/08 04:47:05;;;;;;;25.50;23.55;;;;;;;4.78;71.38;98911.84;10486076;28;20040;-66
2020/12/08 04:52:07;;;;;;;24.55;22.75;;;;;;;5.11;70.24;98909.25;10504321;28;20044;-64
2020/12/08 04:57:08;;;;;;;26.38;24.00;;;;;;;5.43;69.46;98910.94;10504010;28;20079;-65
2020/12/08 05:02:12;;;;;;;22.92;21.20;;;;;;;5.41;69.53;98908.38;10505816;28;20078;-65
2020/12/08 05:07:17;;;;;;;24.85;22.70;;;;;;;5.77;68.69;98895.16;10504679;28;20045;-65
2020/12/08 05:12:22;;;;;;;22.83;21.23;;;;;;;5.66;68.93;98900.69;10503708;28;20048;-66
2020/12/08 05:17:25;;;;;;;23.45;21.13;;;;;;;5.75;68.20;98899.56;10468538;28;20111;-66
2020/12/08 05:22:26;;;;;;;22.25;20.55;;;;;;;5.80;68.05;98908.13;10504162;28;20048;-65
2020/12/08 05:27:27;;;;;;;19.77;18.38;;;;;;;5.86;67.66;98907.06;10503536;28;20211;-65
2020/12/08 05:32:36;;;;;;;22.27;20.58;;;;;;;5.70;67.92;98912.72;10504905;28;20040;-65
2020/12/08 05:37:44;;;;;;;21.90;20.30;;;;;;;5.62;68.12;98906.03;10487246;28;20049;-65
2020/12/08 05:42:48;;;;;;;23.05;21.33;;;;;;;5.35;68.77;98905.09;10503907;28;20038;-63
2020/12/08 05:47:52;;;;;;;21.00;19.40;;;;;;;5.29;68.48;98906.13;10485649;28;20048;-65
2020/12/08 05:52:56;;;;;;;21.80;20.05;;;;;;;5.34;68.51;98911.22;10503288;28;20096;-65
2020/12/08 05:58:06;;;;;;;21.83;20.23;;;;;;;5.06;69.12;98907.63;10484661;28;20115;-65
2020/12/08 06:03:12;;;;;;;21.90;20.20;;;;;;;5.20;68.42;98901.19;10503219;28;20040;-64
2020/12/08 06:08:15;;;;;;;21.45;19.90;;;;;;;5.14;68.79;98912.63;10485400;28;20047;-64
2020/12/08 06:13:32;;;;;;;22.13;20.58;;;;;;;4.82;69.21;98916.09;10501145;28;20098;-65
2020/12/08 06:18:36;;;;;;;22.80;20.90;;;;;;;4.78;69.30;98930.06;10513251;22;20037;-67
2020/12/08 06:23:40;;;;;;;21.50;19.90;;;;;;;4.76;69.50;98929.28;10500624;28;20048;-67
2020/12/08 06:28:41;;;;;;;24.70;20.90;;;;;;;4.55;69.60;98938.47;10498811;28;20051;-66
2020/12/08 06:33:51;;;;;;;21.23;19.58;;;;;;;4.72;68.94;98931.09;10498477;28;20040;-66
2020/12/08 06:39:00;;;;;;;21.88;20.17;;;;;;;4.85;68.55;98938.59;10499485;28;20101;-66
2020/12/08 06:44:04;;;;;;;22.17;20.15;;;;;;;4.83;68.22;98943.84;10498038;28;20049;-66
2020/12/08 06:49:08;;;;;;;20.67;19.00;;;;;;;4.73;68.38;98938.00;10499881;28;20052;-67
2020/12/08 06:54:13;;;;;;;21.98;19.55;;;;;;;4.74;68.25;98963.16;10501279;28;20052;-68
2020/12/08 06:59:25;;;;;;;21.60;20.00;;;;;;;4.64;68.34;98959.06;10484982;28;20051;-67
2020/12/08 07:04:29;;;;;;;21.33;19.60;;;;;;;4.51;68.94;98968.91;10500554;28;20043;-67
2020/12/08 07:09:32;;;;;;;22.58;20.55;;;;;;;4.19;69.19;98964.47;10505724;28;20084;-67
2020/12/08 07:14:36;;;;;;;21.33;19.38;;;;;;;4.04;69.77;98963.09;10507218;28;20090;-67
2020/12/08 07:19:42;;;;;;;22.33;20.23;;;;;;;4.30;69.34;98975.50;10504585;28;20051;-68
2020/12/08 07:24:43;;;;;;;21.83;20.13;;;;;;;4.18;69.16;98973.19;10505221;28;20443;-68
2020/12/08 07:29:45;;;;;;;22.33;20.58;;;;;;;4.33;68.92;98979.75;10487127;28;20065;-68
2020/12/08 07:34:49;;;;;;;20.20;18.48;;;;;;;4.20;69.00;98978.34;10506567;28;20155;-68
2020/12/08 07:39:53;;;;;;;19.70;18.20;;;;;;;4.32;68.44;98985.88;10492236;28;20139;-66
2020/12/08 07:44:58;;;;;;;21.27;19.52;;;;;;;4.29;68.67;98988.53;10492855;28;20052;-68
2020/12/08 07:49:59;;;;;;;20.23;18.30;;;;;;;4.09;68.85;98995.94;10509175;28;20065;-69
2020/12/08 07:55:01;;;;;;;20.55;18.77;;;;;;;4.26;68.21;98999.88;10502187;28;20044;-68
2020/12/08 08:00:03;;;;;;;20.90;19.02;;;;;;;4.13;68.48;98998.44;10503883;28;20040;-68
2020/12/08 08:05:13;;;;;;;20.02;18.45;;;;;;;4.40;68.18;98999.56;10504962;28;20048;-67
2020/12/08 08:10:15;;;;;;;18.40;16.75;;;;;;;4.49;67.80;98988.94;10487550;28;20049;-68
2020/12/08 08:15:17;;;;;;;18.92;17.50;;;;;;;4.36;68.01;98997.06;10493010;28;20036;-67
2020/12/08 08:20:18;;;;;;;19.02;17.52;;;;;;;4.70;67.25;98999.72;10510332;28;20465;-68
2020/12/08 08:25:20;;;;;;;17.50;16.20;;;;;;;4.61;67.11;98995.59;10494517;28;20493;-67
2020/12/08 08:30:22;;;;;;;18.35;17.02;;;;;;;4.57;67.31;98991.34;10509405;28;20090;-67
2020/12/08 08:35:27;;;;;;;17.05;15.73;;;;;;;4.69;67.06;98998.88;10510909;28;20086;-68
2020/12/08 08:40:28;;;;;;;17.95;16.35;;;;;;;4.75;67.02;99000.47;10510174;28;20052;-68
2020/12/08 08:45:30;;;;;;;18.35;16.75;;;;;;;4.68;67.04;99010.16;10508794;28;20116;-67
2020/12/08 08:50:32;;;;;;;16.75;15.32;;;;;;;5.03;66.04;99006.66;10509562;28;20048;-67
2020/12/08 08:55:35;;;;;;;16.35;15.05;;;;;;;5.16;65.50;99004.59;10489406;28;20132;-68
2020/12/08 09:00:46;;;;;;;16.95;15.48;;;;;;;5.15;65.35;99007.25;10484301;28;20048;-68
2020/12/08 09:05:48;;;;;;;17.08;15.50;;;;;;;5.32;64.71;99008.53;10502504;28;20068;-67
2020/12/08 09:10:50;;;;;;;15.25;14.05;;;;;;;5.59;63.67;99018.25;10502781;28;20052;-68
2020/12/08 09:15:52;;;;;;;14.20;13.05;;;;;;;5.74;62.91;99016.03;10503413;28;20056;-66
2020/12/08 09:20:54;;;;;;;14.40;13.13;;;;;;;5.86;62.71;99022.69;10487570;28;20050;-67
2020/12/08 09:25:58;;;;;;;13.38;12.18;;;;;;;5.84;62.57;99014.03;10507575;28;20036;-67
2020/12/08 09:30:59;;;;;;;13.48;12.35;;;;;;;6.28;60.96;99014.50;10488138;28;20036;-67
2020/12/08 09:36:01;;;;;;;11.35;10.45;;;;;;;6.52;59.43;99010.28;10504704;28;20046;-66
2020/12/08 09:41:02;;;;;;;11.25;10.20;;;;;;;6.62;59.33;99009.06;10504031;28;20056;-67
2020/12/08 09:46:04;;;;;;;10.70;9.80;;;;;;;6.61;59.51;99007.38;10485867;28;20053;-66
2020/12/08 09:51:05;;;;;;;10.98;10.07;;;;;;;6.43;59.48;99013.19;10503665;28;20112;-66
2020/12/08 09:56:07;;;;;;;10.85;10.05;;;;;;;6.47;59.03;99007.81;10503275;28;20044;-66
2020/12/08 10:01:09;;;;;;;10.60;9.70;;;;;;;6.74;58.42;99015.66;10503542;28;20086;-66
2020/12/08 10:06:12;;;;;;;10.38;9.48;;;;;;;6.75;58.33;99019.97;10503036;28;20494;-67
2020/12/08 10:11:14;;;;;;;10.27;9.48;;;;;;;6.80;57.97;99023.28;10502078;28;20086;-67
2020/12/08 10:16:27;;;;;;;8.98;8.23;;;;;;;6.58;58.27;99028.34;10485761;28;20539;-67
2020/12/08 10:21:28;;;;;;;10.30;9.40;;;;;;;6.79;57.78;99034.66;10501700;28;20036;-68
2020/12/08 10:26:30;;;;;;;9.75;8.85;;;;;;;6.67;58.47;99048.09;10502357;28;20048;-67
2020/12/08 10:31:31;;;;;;;10.15;9.15;;;;;;;6.89;57.57;99043.91;10500949;28;20198;-67
2020/12/08 10:36:33;;;;;;;8.77;7.95;;;;;;;6.84;57.61;99056.25;10502022;28;20045;-67
2020/12/08 10:41:36;;;;;;;9.57;8.68;;;;;;;6.81;57.46;99036.28;10500999;28;20437;-67
2020/12/08 10:46:38;;;;;;;11.27;10.27;;;;;;;6.78;57.71;99053.84;10501700;28;20036;-69
2020/12/08 10:51:39;;;;;;;9.38;8.57;;;;;;;6.58;57.96;99049.25;10501446;28;20033;-67
2020/12/08 10:56:41;;;;;;;9.90;9.02;;;;;;;6.85;57.46;99039.66;10501000;28;20460;-67
2020/12/08 11:01:42;;;;;;;10.32;9.40;;;;;;;6.93;57.33;99037.66;10482541;28;20139;-67
2020/12/08 11:06:45;;;;;;;11.07;10.18;;;;;;;7.43;56.04;99042.94;10499269;28;20047;-67
2020/12/08 11:11:48;;;;;;;9.40;8.60;;;;;;;9.28;52.31;99034.97;10499704;28;20052;-68
2020/12/08 11:16:49;;;;;;;8.40;7.80;;;;;;;11.55;46.65;99031.31;10499068;28;20159;-67
2020/12/08 11:22:06;;;;;;;10.75;7.70;;;;;;;11.57;46.05;99039.97;10481840;28;20117;-68
2020/12/08 11:27:20;;;;;;;8.10;7.50;;;;;;;11.23;46.81;99022.41;10482170;28;20489;-67
2020/12/08 11:32:21;;;;;;;10.23;7.78;;;;;;;11.38;47.11;99031.31;10499384;28;20056;-68
2020/12/08 11:37:23;;;;;;;9.68;8.77;;;;;;;10.73;48.75;99035.44;10480329;28;20040;-67
2020/12/08 11:42:25;;;;;;;9.05;8.30;;;;;;;10.79;47.98;99041.22;10499517;28;20040;-67
2020/12/08 11:47:26;;;;;;;9.27;8.57;;;;;;;8.90;52.05;99052.28;10488620;28;20140;-67
2020/12/08 11:52:27;;;;;;;10.10;9.07;;;;;;;8.26;53.43;99056.47;10507070;28;20412;-68
2020/12/08 11:57:29;;;;;;;10.43;9.25;;;;;;;8.32;53.94;99045.78;10488595;28;20033;-67
2020/12/08 12:02:31;;;;;;;9.73;8.93;;;;;;;8.07;53.88;99056.34;10489705;28;20071;-67
2020/12/08 12:07:33;;;;;;;9.00;8.32;;;;;;;7.72;54.69;99069.84;10509624;28;20078;-68
2020/12/08 12:12:36;;;;;;;10.43;9.07;;;;;;;7.26;55.88;99074.91;10507244;28;20078;-68
2020/12/08 12:17:37;;;;;;;10.27;9.45;;;;;;;7.77;54.39;99070.53;10498442;22;20091;-69
2020/12/08 12:22:39;;;;;;;9.35;8.65;;;;;;;7.43;54.90;99056.00;10505116;28;20037;-69
2020/12/08 12:27:42;;;;;;;10.45;9.35;;;;;;;7.01;56.15;99067.00;10486577;28;20044;-68
2020/12/08 12:32:48;;;;;;;10.05;9.25;;;;;;;6.80;57.05;99050.25;10488012;28;20111;-69
2020/12/08 12:37:49;;;;;;;9.93;9.13;;;;;;;6.84;56.81;99058.88;10503905;28;20048;-70
2020/12/08 12:42:51;;;;;;;9.98;9.13;;;;;;;6.87;56.66;99063.16;10485788;28;20047;-69
2020/12/08 12:47:52;;;;;;;9.93;9.13;;;;;;;6.84;56.65;99053.63;10504418;28;20047;-68
2020/12/08 12:52:54;;;;;;;10.27;9.48;;;;;;;6.76;56.75;99053.88;10485367;28;20059;-69
2020/12/08 12:57:56;;;;;;;10.55;9.57;;;;;;;6.69;56.81;99047.16;10502478;28;20051;-69
2020/12/08 13:02:57;;;;;;;10.55;9.75;;;;;;;6.72;57.12;99046.19;10505010;28;20044;-68
2020/12/08 13:07:59;;;;;;;11.27;10.35;;;;;;;6.47;57.67;99046.97;10503004;28;20040;-69
2020/12/08 13:13:01;;;;;;;9.80;8.98;;;;;;;6.66;57.20;99041.19;10502712;28;20029;-69
2020/12/08 13:18:02;;;;;;;10.40;9.48;;;;;;;6.66;57.26;99049.00;10503492;28;20363;-69
2020/12/08 13:23:04;;;;;;;10.20;9.27;;;;;;;6.49;57.92;99047.78;10503481;28;20142;-69
2020/12/08 13:28:05;;;;;;;10.30;9.30;;;;;;;6.58;57.57;99060.53;10485459;28;20052;-69
2020/12/08 13:33:07;;;;;;;11.30;10.40;;;;;;;6.60;57.42;99050.06;10504757;28;20115;-69
2020/12/08 13:38:09;;;;;;;10.00;9.20;;;;;;;6.38;58.07;99052.47;10502747;28;20049;-69
2020/12/08 13:43:10;;;;;;;9.60;8.85;;;;;;;6.33;58.51;99051.78;10505088;28;20033;-69
2020/12/08 13:48:12;;;;;;;11.07;10.00;;;;;;;6.38;58.54;99046.41;10502035;28;20072;-69
2020/12/08 13:53:14;;;;;;;9.60;8.80;;;;;;;6.42;58.31;99048.00;10501255;28;20048;-69
2020/12/08 13:58:15;;;;;;;12.38;9.05;;;;;;;6.16;59.01;99051.41;10501565;28;20048;-69
2020/12/08 14:03:17;;;;;;;10.20;9.30;;;;;;;6.22;58.87;99051.22;10482578;28;20136;-69
2020/12/08 14:08:18;;;;;;;10.07;9.23;;;;;;;6.08;59.34;99051.63;10501287;28;20040;-69
2020/12/08 14:13:20;;;;;;;11.05;10.20;;;;;;;6.15;59.28;99040.09;10484053;28;20094;-69
2020/12/08 14:18:24;;;;;;;10.38;9.38;;;;;;;6.18;59.20;99047.00;10500222;28;20044;-69
2020/12/08 14:23:25;;;;;;;10.85;9.88;;;;;;;6.15;59.35;99047.06;10499858;28;20476;-69
2020/12/08 14:28:27;;;;;;;12.32;10.80;;;;;;;6.24;59.46;99046.81;10501065;28;20052;-70
2020/12/08 14:33:42;;;;;;;11.57;10.57;;;;;;;5.94;60.28;99045.97;10500363;28;20511;-70
2020/12/08 14:38:44;;;;;;;11.43;10.48;;;;;;;6.10;60.08;99055.03;10500219;28;20044;-68
2020/12/08 14:43:45;;;;;;;11.43;10.45;;;;;;;5.98;60.50;99064.09;10481905;28;20041;-69
2020/12/08 14:48:47;;;;;;;11.93;10.82;;;;;;;5.89;60.66;99064.31;10499290;28;20486;-70
2020/12/08 14:53:49;;;;;;;11.88;10.77;;;;;;;6.02;60.30;99067.44;10498713;28;20112;-69
2020/12/08 14:58:51;;;;;;;11.85;10.85;;;;;;;5.66;61.12;99061.47;10499312;28;20044;-69
2020/12/08 15:03:54;;;;;;;11.80;10.90;;;;;;;5.29;62.32;99072.88;10499334;28;20504;-69
2020/12/08 15:08:56;;;;;;;13.48;12.32;;;;;;;5.56;61.53;99068.69;10481686;28;20060;-69
2020/12/08 15:13:58;;;;;;;11.93;10.77;;;;;;;5.63;61.38;99078.09;10501124;28;20048;-69
2020/12/08 15:18:59;;;;;;;13.95;11.77;;;;;;;5.55;61.73;99093.06;10501020;28;20072;-69
2020/12/08 15:24:09;;;;;;;13.23;12.02;;;;;;;5.53;61.96;99087.03;10506610;28;20097;-69
2020/12/08 15:29:11;;;;;;;12.52;11.25;;;;;;;5.17;62.38;99099.25;10507294;28;20121;-69
2020/12/08 15:34:12;;;;;;;12.48;11.43;;;;;;;4.99;62.93;99098.81;10508626;28;20097;-69
2020/12/08 15:39:13;;;;;;;14.57;13.05;;;;;;;4.81;63.43;99107.91;10507768;28;20050;-69
2020/12/08 15:44:15;;;;;;;14.32;13.13;;;;;;;4.53;64.27;99102.47;10506561;28;20071;-70
2020/12/08 15:49:17;;;;;;;14.32;12.93;;;;;;;4.84;64.19;99108.75;10488729;28;20452;-69
2020/12/08 15:54:18;;;;;;;15.60;13.98;;;;;;;4.78;64.24;99109.72;10506992;28;20395;-69
2020/12/08 15:59:20;;;;;;;14.07;12.77;;;;;;;4.79;63.89;99114.91;10476578;28;20426;-70
2020/12/08 16:04:22;;;;;;;17.52;15.93;;;;;;;4.78;64.18;99110.59;10505736;28;20044;-69
2020/12/08 16:09:24;;;;;;;15.23;14.02;;;;;;;4.74;64.08;99116.78;10505306;28;20045;-68
2020/12/08 16:14:25;;;;;;;16.17;14.77;;;;;;;4.58;64.54;99111.94;10506160;28;20485;-69
2020/12/08 16:19:29;;;;;;;14.43;13.13;;;;;;;4.46;64.57;99113.91;10487083;28;20040;-69
2020/12/08 16:24:31;;;;;;;14.63;13.40;;;;;;;4.37;64.97;99115.84;10505778;28;20049;-69
2020/12/08 16:29:32;;;;;;;15.82;14.07;;;;;;;4.07;65.36;99104.34;10504068;28;20068;-69
2020/12/08 16:34:34;;;;;;;15.23;13.98;;;;;;;4.20;65.99;99103.19;10504364;28;20123;-69
2020/12/08 16:39:35;;;;;;;17.52;15.65;;;;;;;4.20;65.58;99109.25;10505766;28;20045;-68
2020/12/08 16:44:37;;;;;;;15.98;14.65;;;;;;;4.45;65.18;99109.59;10487264;28;20119;-69
2020/12/08 16:49:41;;;;;;;14.90;13.60;;;;;;;4.46;65.08;99119.09;10504271;28;20116;-69
2020/12/08 16:54:42;;;;;;;17.30;14.63;;;;;;;4.45;64.75;99125.22;10503751;28;20464;-69
2020/12/08 16:59:44;;;;;;;16.10;14.45;;;;;;;4.63;64.50;99142.16;10485910;28;20040;-69
2020/12/08 17:04:45;;;;;;;15.90;14.45;;;;;;;4.38;64.67;99136.63;10503800;28;20053;-69
2020/12/08 17:09:48;;;;;;;14.93;13.63;;;;;;;4.35;64.93;99134.09;10486412;28;20060;-68
2020/12/08 17:14:49;;;;;;;15.63;14.43;;;;;;;4.60;64.19;99133.56;10487269;28;20481;-69
2020/12/08 17:19:51;;;;;;;13.23;12.07;;;;;;;4.63;63.77;99131.75;10486907;28;20405;-69
2020/12/08 17:24:53;;;;;;;15.93;14.45;;;;;;;4.63;63.87;99134.34;10503416;28;20095;-70
2020/12/08 17:29:54;;;;;;;14.90;13.50;;;;;;;4.66;63.78;99130.84;10503244;28;20041;-70
2020/12/08 17:34:56;;;;;;;13.60;12.40;;;;;;;4.72;63.56;99133.28;10487652;28;20129;-68
2020/12/08 17:39:58;;;;;;;14.57;13.30;;;;;;;4.60;63.94;99117.94;10504458;28;20071;-69
2020/12/08 17:44:59;;;;;;;14.63;13.43;;;;;;;4.59;64.05;99124.06;10506024;28;20044;-70
2020/12/08 17:50:04;;;;;;;14.35;13.15;;;;;;;4.55;64.08;99131.91;10503435;28;20043;-71
2020/12/08 17:55:06;;;;;;;16.25;14.55;;;;;;;4.38;64.78;99138.38;10487668;28;20044;-71
2020/12/08 18:00:11;;;;;;;17.27;15.77;;;;;;;4.44;64.61;99146.91;10502788;28;20036;-70
2020/12/08 18:05:14;;;;;;;13.27;12.15;;;;;;;4.70;64.21;99135.94;10505363;28;20049;-70
2020/12/08 18:10:16;;;;;;;16.10;14.63;;;;;;;4.80;64.05;99141.78;10502891;28;20473;-71
2020/12/08 18:15:18;;;;;;;14.60;13.32;;;;;;;4.80;64.20;99126.19;10505220;28;20124;-70
2020/12/08 18:20:19;;;;;;;15.85;14.45;;;;;;;4.92;63.91;99135.47;10503088;28;20032;-66
2020/12/08 18:25:21;;;;;;;15.63;14.13;;;;;;;4.96;63.90;99144.91;10486344;28;20048;-67
2020/12/08 18:30:22;;;;;;;14.70;13.50;;;;;;;5.02;63.74;99152.59;10503639;28;20521;-67
2020/12/08 18:35:24;;;;;;;15.25;13.88;;;;;;;5.07;63.49;99146.34;10503796;28;20473;-65
2020/12/08 18:40:25;;;;;;;14.93;13.63;;;;;;;5.12;63.46;99142.78;10501426;28;20111;-67
2020/12/08 18:45:27;;;;;;;16.25;14.73;;;;;;;4.86;64.49;99144.25;10503025;28;20040;-65
2020/12/08 18:50:28;;;;;;;15.48;14.18;;;;;;;4.93;64.33;99135.41;10503201;28;20040;-67
2020/12/08 18:55:30;;;;;;;15.43;14.02;;;;;;;4.84;64.77;99145.19;10502137;28;20043;-66
2020/12/08 19:00:33;;;;;;;15.88;14.50;;;;;;;5.00;64.51;99146.53;10484683;28;20045;-66
2020/12/08 19:05:35;;;;;;;14.32;13.20;;;;;;;5.19;64.01;99154.78;10500942;28;20095;-67
2020/12/08 19:10:36;;;;;;;14.45;13.27;;;;;;;5.09;64.21;99156.75;10502168;28;20041;-67
2020/12/08 19:15:38;;;;;;;14.70;13.50;;;;;;;5.19;64.12;99162.59;10502212;28;20047;-67
2020/12/08 19:20:40;;;;;;;14.85;13.68;;;;;;;5.14;64.70;99154.91;10500355;28;20040;-66
2020/12/08 19:25:42;;;;;;;16.65;15.13;;;;;;;5.10;64.69;99162.81;10500268;28;20139;-65
2020/12/08 19:30:43;;;;;;;15.52;14.25;;;;;;;4.95;65.10;99162.25;10501171;28;20462;-66
2020/12/08 19:35:44;;;;;;;14.90;13.68;;;;;;;5.31;64.42;99167.50;10499313;28;20563;-67
2020/12/08 19:40:45;;;;;;;15.18;13.70;;;;;;;5.16;65.03;99173.09;10481967;28;20395;-67
2020/12/08 19:45:46;;;;;;;15.35;13.93;;;;;;;5.24;64.98;99168.56;10482466;28;20452;-65
2020/12/08 19:50:49;;;;;;;15.63;14.13;;;;;;;5.52;64.03;99169.59;10482320;28;20055;-66
2020/12/08 19:55:50;;;;;;;14.05;12.85;;;;;;;5.52;64.32;99166.97;10464501;28;20461;-67
2020/12/08 20:00:52;;;;;;;15.13;13.85;;;;;;;5.62;64.03;99164.13;10470097;28;20091;-65
2020/12/08 20:05:54;;;;;;;14.43;13.32;;;;;;;5.68;64.07;99166.59;10502516;28;20045;-66
2020/12/08 20:10:55;;;;;;;14.63;13.48;;;;;;;5.63;64.28;99176.28;10482285;28;20045;-67
2020/12/08 20:15:56;;;;;;;16.42;15.13;;;;;;;5.56;64.68;99167.75;10466002;28;20040;-65
2020/12/08 20:20:57;;;;;;;16.45;14.98;;;;;;;5.67;64.19;99163.16;10464986;28;20041;-66
2020/12/08 20:25:59;;;;;;;15.75;14.35;;;;;;;5.80;64.13;99169.75;10472880;28;20048;-66
2020/12/08 20:31:00;;;;;;;17.25;15.95;;;;;;;5.90;63.85;99167.75;10505907;28;20036;-66
2020/12/08 20:36:01;;;;;;;16.67;15.30;;;;;;;5.83;63.88;99150.53;10507126;28;20057;-66
2020/12/08 20:41:02;;;;;;;14.95;13.75;;;;;;;5.85;64.07;99159.19;10505156;28;20044;-66
2020/12/08 20:46:03;;;;;;;15.20;14.10;;;;;;;5.90;63.86;99161.69;10505226;28;20067;-67
2020/12/08 20:51:05;;;;;;;18.00;16.40;;;;;;;5.77;64.40;99153.31;10487007;28;20056;-66
2020/12/08 20:56:08;;;;;;;17.75;16.45;;;;;;;5.61;64.71;99157.22;10505619;28;20056;-65
2020/12/08 21:01:09;;;;;;;19.20;17.15;;;;;;;5.83;64.56;99166.19;10487867;28;20041;-67
2020/12/08 21:06:11;;;;;;;17.92;16.60;;;;;;;5.63;64.92;99156.28;10463686;28;20083;-66
2020/12/08 21:11:12;;;;;;;18.70;17.25;;;;;;;5.75;65.05;99161.16;10462430;28;20037;-67
2020/12/08 21:16:20;;;;;;;18.77;17.17;;;;;;;5.87;64.90;99161.75;10461814;28;20047;-66
2020/12/08 21:21:22;;;;;;;19.10;17.67;;;;;;;5.94;64.84;99169.41;10463360;28;20517;-66
2020/12/08 21:26:25;;;;;;;20.05;18.45;;;;;;;6.01;64.68;99155.28;10463581;28;20398;-66
2020/12/08 21:31:29;;;;;;;19.92;18.42;;;;;;;6.03;64.93;99157.88;10473738;28;20079;-67
2020/12/08 21:36:30;;;;;;;21.05;19.00;;;;;;;5.96;64.99;99157.16;10502969;28;20390;-66
2020/12/08 21:41:32;;;;;;;20.77;18.85;;;;;;;5.89;65.50;99159.94;10504562;28;20063;-66
2020/12/08 21:46:38;;;;;;;21.33;19.63;;;;;;;6.04;65.08;99159.59;10504101;28;20056;-65
2020/12/08 21:51:40;;;;;;;21.73;19.80;;;;;;;6.04;65.27;99156.97;10503460;28;20051;-65
2020/12/08 21:56:44;;;;;;;22.35;20.55;;;;;;;5.78;65.92;99161.09;10501402;28;20058;-66
2020/12/08 22:01:45;;;;;;;21.42;19.63;;;;;;;5.94;65.77;99165.97;10483592;28;20048;-67
2020/12/08 22:06:46;;;;;;;21.73;19.90;;;;;;;5.98;65.74;99162.38;10502330;28;20397;-67
2020/12/08 22:11:48;;;;;;;23.45;20.85;;;;;;;5.96;66.34;99151.97;10501585;28;20040;-65
2020/12/08 22:16:51;;;;;;;22.27;20.33;;;;;;;5.86;66.81;99160.91;10501299;28;20100;-67
2020/12/08 22:21:53;;;;;;;22.52;20.63;;;;;;;5.72;67.36;99170.84;10483972;28;20398;-66
2020/12/08 22:26:56;;;;;;;21.83;19.92;;;;;;;5.53;68.27;99160.00;10501554;28;20048;-66
2020/12/08 22:31:57;;;;;;;19.38;17.55;;;;;;;5.39;68.14;99175.13;10500646;28;20490;-66
2020/12/08 22:37:03;;;;;;;18.67;17.17;;;;;;;5.31;68.37;99173.59;10501122;28;20413;-67
2020/12/08 22:42:08;;;;;;;17.25;15.90;;;;;;;5.42;68.26;99167.25;10501313;28;20092;-65
2020/12/08 22:47:10;;;;;;;17.50;16.13;;;;;;;5.26;68.52;99164.16;10501401;28;20045;-66
2020/12/08 22:52:11;;;;;;;17.70;16.30;;;;;;;5.26;68.26;99164.16;10501182;28;20060;-66
2020/12/08 22:57:12;;;;;;;16.55;15.05;;;;;;;5.37;67.82;99167.38;10483101;28;20410;-65
2020/12/08 23:02:13;;;;;;;16.73;15.43;;;;;;;5.24;68.28;99163.34;10483543;28;20047;-66
2020/12/08 23:07:14;;;;;;;16.70;15.40;;;;;;;5.24;68.46;99173.78;10501519;28;20083;-66
2020/12/08 23:12:16;;;;;;;16.38;15.15;;;;;;;5.39;68.34;99175.13;10483189;28;20115;-66
2020/12/08 23:17:17;;;;;;;15.43;14.23;;;;;;;5.43;67.89;99168.97;10500419;28;20044;-66